ENVR/VRY METAR and TAF weather

Enter ICAO airport designator
Station Type Date Time Source
ENVR METAR 2018/10/20 05:50 UTC NOAA

ENVR 200550Z 23020KT 9999 VCSH SCT014 SCT045 09/06 Q1011


Station Type Date Time Source
ENVR Decoded METAR 2018/10/20 05:50 UTC NOAA

Station name not available
Oct 20, 2018 - 01:50 AM EDT / 2018.10.20 0550 UTC
Wind: from the SW (230 degrees) at 23 MPH (20 KT):0
Visibility: greater than 7 mile(s):0
Sky conditions: partly cloudy
Weather: showers in the vicinity
Temperature: 48 F (9 C)
Dew Point: 42 F (6 C)
Relative Humidity: 81%
Pressure (altimeter): 29.85 in. Hg (1011 hPa)
ob: ENVR 200550Z 23020KT 9999 VCSH SCT014 SCT045 09/06 Q1011
cycle: 6

Station Type Date Time Source
ENVR TAF UTC NOAA

Error!


Example: see airport list